TimeEDT,TemperatureF,Dew PointF,Humidity,Sea Level PressureIn,VisibilityMPH,Wind Direction,Wind SpeedMPH,Gust SpeedMPH,PrecipitationIn,Events,Conditions,WindDirDegrees,DateUTC
1:53 AM,79.0,72.0,79,30.05,10.0,ENE,9.2,-,N/A,,Clear,70,2012-09-26 05:53:00
2:53 AM,78.1,70.0,76,30.04,10.0,East,6.9,-,N/A,,Clear,80,2012-09-26 06:53:00
3:53 AM,79.0,73.0,82,30.02,10.0,East,5.8,-,N/A,,Partly Cloudy,80,2012-09-26 07:53:00
4:53 AM,79.0,73.0,82,30.02,10.0,East,5.8,-,N/A,,Scattered Clouds,80,2012-09-26 08:53:00
5:53 AM,79.0,71.1,77,30.03,10.0,East,6.9,-,N/A,,Clear,80,2012-09-26 09:53:00
6:53 AM,79.0,70.0,74,30.05,10.0,East,6.9,-,N/A,,Clear,100,2012-09-26 10:53:00
7:53 AM,79.0,72.0,79,30.06,10.0,East,6.9,-,N/A,,Overcast,90,2012-09-26 11:53:00
8:53 AM,80.1,73.0,79,30.07,10.0,East,6.9,-,N/A,,Clear,100,2012-09-26 12:53:00
9:53 AM,80.1,73.0,79,30.08,10.0,East,6.9,-,N/A,,Clear,80,2012-09-26 13:53:00
10:53 AM,81.0,73.0,77,30.09,10.0,East,10.4,-,N/A,,Overcast,90,2012-09-26 14:53:00
11:53 AM,82.9,75.0,77,30.09,10.0,ENE,6.9,-,N/A,,Clear,70,2012-09-26 15:53:00
12:53 PM,82.9,75.9,79,30.09,10.0,East,6.9,-,N/A,,Scattered Clouds,100,2012-09-26 16:53:00
1:53 PM,82.0,75.9,82,30.08,10.0,ENE,9.2,-,N/A,,Scattered Clouds,70,2012-09-26 17:53:00
2:53 PM,82.9,75.0,77,30.06,10.0,NE,9.2,-,N/A,,Mostly Cloudy,50,2012-09-26 18:53:00
3:53 PM,81.0,73.9,79,30.05,10.0,NNE,9.2,-,N/A,,Mostly Cloudy,30,2012-09-26 19:53:00
4:53 PM,81.0,73.0,77,30.04,10.0,NE,9.2,-,N/A,,Clear,50,2012-09-26 20:53:00
5:53 PM,80.1,73.0,79,30.04,10.0,NE,9.2,-,N/A,,Mostly Cloudy,50,2012-09-26 21:53:00
6:53 PM,80.1,72.0,76,30.07,10.0,NE,8.1,-,N/A,,Mostly Cloudy,40,2012-09-26 22:53:00
7:53 PM,79.0,72.0,79,30.09,10.0,NE,5.8,-,0.00,Rain,Light Rain,40,2012-09-26 23:53:00
8:53 PM,79.0,73.9,84,30.09,10.0,NNE,5.8,-,0.00,,Partly Cloudy,30,2012-09-27 00:53:00
9:53 PM,79.0,73.9,84,30.08,10.0,ENE,10.4,-,N/A,,Partly Cloudy,60,2012-09-27 01:53:00
10:53 PM,79.0,73.9,84,30.09,10.0,ENE,4.6,-,N/A,,Partly Cloudy,60,2012-09-27 02:53:00
11:29 PM,80.6,75.2,84,30.09,10.0,ENE,5.8,-,N/A,,Mostly Cloudy,60,2012-09-27 03:29:00
11:43 PM,78.8,73.4,83,30.08,10.0,ENE,6.9,-,N/A,,Mostly Cloudy,70,2012-09-27 03:43:00
11:53 PM,79.0,73.9,84,30.09,10.0,ENE,4.6,-,N/A,,Partly Cloudy,60,2012-09-27 03:53:00